Time;durP1;ratioP1;P1;durP2;ratioP2;P2;SDS_P1;SDS_P2;PMS_P1;PMS_P2;Temp;Humidity;BMP_temperature;BMP_pressure;BME280_temperature;BME280_humidity;BME280_pressure;Samples;Min_cycle;Max_cycle;Signal;HPM_P1;HPM_P2
2023/03/01 00:01:05;;;;;;;16.55;9.48;;;0.60;99.90;;;;;;5001834;28;20030;-36
2023/03/01 00:03:30;;;;;;;21.13;10.43;;;0.60;99.90;;;;;;5006254;28;20022;-36
2023/03/01 00:05:56;;;;;;;19.95;10.02;;;0.60;99.90;;;;;;5003920;28;20030;-36
2023/03/01 00:08:21;;;;;;;17.80;9.27;;;0.70;99.90;;;;;;4995227;28;20031;-35
2023/03/01 00:10:47;;;;;;;13.77;8.73;;;0.70;99.90;;;;;;5000985;28;20037;-36
2023/03/01 00:13:13;;;;;;;15.32;9.95;;;0.60;99.90;;;;;;5001618;28;20079;-35
2023/03/01 00:15:41;;;;;;;17.63;10.35;;;0.60;99.90;;;;;;5003875;28;20033;-36
2023/03/01 00:18:08;;;;;;;;;;;0.60;99.90;;;;;;4998295;28;20027;-35
2023/03/01 00:20:34;;;;;;;15.07;9.77;;;0.60;99.90;;;;;;5001126;28;19913;-36
2023/03/01 00:22:59;;;;;;;17.35;9.48;;;0.70;99.90;;;;;;4998930;28;20142;-36
2023/03/01 00:25:25;;;;;;;17.05;9.68;;;0.70;99.90;;;;;;5004173;28;20030;-35
2023/03/01 00:27:51;;;;;;;18.15;10.48;;;0.60;99.90;;;;;;4999116;28;20443;-35
2023/03/01 00:30:16;;;;;;;13.73;9.18;;;0.70;99.90;;;;;;5005682;28;20065;-36
2023/03/01 00:32:42;;;;;;;19.13;9.85;;;0.70;99.90;;;;;;5014876;28;20039;-36
2023/03/01 00:35:08;;;;;;;18.10;10.90;;;0.70;99.90;;;;;;5004477;28;20475;-36
2023/03/01 00:37:33;;;;;;;19.05;9.63;;;0.70;99.90;;;;;;4996462;28;20027;-35
2023/03/01 00:39:59;;;;;;;19.38;10.63;;;0.70;99.90;;;;;;5003593;28;20027;-35
2023/03/01 00:42:24;;;;;;;15.30;9.48;;;0.70;99.90;;;;;;4996656;28;20842;-35
2023/03/01 00:44:50;;;;;;;19.60;10.02;;;0.70;99.90;;;;;;4999263;28;20026;-36
2023/03/01 00:47:16;;;;;;;17.17;10.27;;;0.70;99.90;;;;;;5004396;28;20030;-35
2023/03/01 00:49:41;;;;;;;19.30;9.18;;;0.70;99.90;;;;;;5002771;28;20033;-35
2023/03/01 00:52:07;;;;;;;17.33;9.63;;;0.70;99.90;;;;;;4999392;28;20030;-35
2023/03/01 00:54:33;;;;;;;23.77;10.32;;;0.70;99.90;;;;;;5000948;28;20056;-35
2023/03/01 00:56:58;;;;;;;19.02;10.63;;;0.60;99.90;;;;;;5000252;28;20026;-35
2023/03/01 00:59:24;;;;;;;19.42;10.60;;;0.50;99.90;;;;;;5004098;28;20399;-35
2023/03/01 01:01:49;;;;;;;15.02;9.05;;;0.50;99.90;;;;;;4998342;28;20045;-35
2023/03/01 01:04:15;;;;;;;17.70;9.43;;;0.50;99.90;;;;;;5008401;28;20029;-35
2023/03/01 01:06:46;;;;;;;17.17;9.25;;;0.50;99.90;;;;;;4999102;28;20038;-35
2023/03/01 01:09:18;;;;;;;24.15;10.23;;;0.50;99.90;;;;;;5000821;28;20076;-35
2023/03/01 01:11:48;;;;;;;16.42;9.80;;;0.40;99.90;;;;;;4998983;28;20455;-35
2023/03/01 01:14:15;;;;;;;16.67;8.80;;;0.40;99.90;;;;;;5000549;28;20029;-35
2023/03/01 01:16:40;;;;;;;18.08;9.77;;;0.40;99.90;;;;;;4995935;28;20039;-36
2023/03/01 01:19:06;;;;;;;17.25;9.90;;;0.40;99.90;;;;;;4999436;28;20531;-35
2023/03/01 01:21:32;;;;;;;18.98;9.73;;;0.40;99.90;;;;;;5001200;28;20112;-35
2023/03/01 01:23:58;;;;;;;17.88;10.57;;;0.40;99.90;;;;;;4998815;28;20484;-35
2023/03/01 01:26:27;;;;;;;19.02;9.73;;;0.40;99.90;;;;;;4998421;28;20041;-35
2023/03/01 01:28:53;;;;;;;19.15;9.40;;;0.40;99.90;;;;;;4994180;28;20022;-37
2023/03/01 01:31:19;;;;;;;21.25;11.82;;;0.40;99.90;;;;;;5007739;28;20083;-35
2023/03/01 01:33:45;;;;;;;23.85;10.20;;;0.40;99.90;;;;;;5000515;28;20113;-36
2023/03/01 01:36:12;;;;;;;21.17;11.55;;;0.40;99.90;;;;;;4996925;28;20133;-35
2023/03/01 01:38:38;;;;;;;21.60;11.07;;;0.40;99.90;;;;;;4995567;28;20030;-35
2023/03/01 01:41:05;;;;;;;20.02;10.18;;;0.40;99.90;;;;;;5007488;28;20071;-36
2023/03/01 01:43:36;;;;;;;21.65;10.73;;;0.40;99.90;;;;;;4996236;28;20053;-36
2023/03/01 01:46:24;;;;;;;21.25;10.57;;;0.40;99.90;;;;;;4997824;28;20034;-35
2023/03/01 01:48:54;;;;;;;16.42;9.57;;;0.50;99.90;;;;;;4999079;28;20058;-35
2023/03/01 01:51:25;;;;;;;21.55;10.52;;;0.40;99.90;;;;;;5002792;28;20066;-35
2023/03/01 01:53:58;;;;;;;16.42;9.82;;;0.40;99.90;;;;;;5002006;28;20039;-36
2023/03/01 01:56:25;;;;;;;15.88;9.02;;;0.40;99.90;;;;;;5000680;28;20700;-35
2023/03/01 01:58:52;;;;;;;15.35;10.45;;;0.40;99.90;;;;;;4998339;28;20026;-35
2023/03/01 02:01:17;;;;;;;15.35;9.02;;;0.40;99.90;;;;;;4999632;28;20058;-36
2023/03/01 02:03:45;;;;;;;19.35;10.73;;;0.40;99.90;;;;;;4997361;28;20368;-35
2023/03/01 02:06:34;;;;;;;16.35;10.07;;;0.40;99.90;;;;;;5004809;28;20113;-35
2023/03/01 02:09:07;;;;;;;17.33;9.77;;;0.40;99.90;;;;;;5000342;28;20057;-36
2023/03/01 02:11:33;;;;;;;20.90;10.23;;;0.30;99.90;;;;;;5000722;28;20034;-35
2023/03/01 02:14:00;;;;;;;17.67;10.10;;;0.30;99.90;;;;;;5004435;28;20055;-35
2023/03/01 02:16:26;;;;;;;19.80;11.88;;;0.30;99.90;;;;;;5003931;28;20439;-35
2023/03/01 02:18:53;;;;;;;20.75;10.70;;;0.30;99.90;;;;;;5002505;28;20122;-35
2023/03/01 02:21:41;;;;;;;18.35;10.30;;;0.30;99.90;;;;;;4999809;28;20019;-36
2023/03/01 02:24:36;;;;;;;21.38;10.70;;;0.30;99.90;;;;;;5003351;28;20085;-36
2023/03/01 02:27:02;;;;;;;17.55;8.55;;;0.30;99.90;;;;;;5003401;28;20041;-35
2023/03/01 02:29:28;;;;;;;20.15;11.90;;;0.30;99.90;;;;;;5004680;28;20034;-36
2023/03/01 02:31:58;;;;;;;15.65;9.65;;;0.30;99.90;;;;;;5001297;28;20046;-35
2023/03/01 02:34:25;;;;;;;22.08;10.98;;;0.30;99.90;;;;;;5002937;28;20065;-36
2023/03/01 02:36:59;;;;;;;16.15;9.10;;;0.30;99.90;;;;;;5003717;28;20439;-35
2023/03/01 02:39:46;;;;;;;20.80;10.18;;;0.30;99.90;;;;;;5004913;28;20438;-36
2023/03/01 02:42:21;;;;;;;19.27;10.73;;;0.30;99.90;;;;;;4999671;28;20117;-36
2023/03/01 02:44:48;;;;;;;21.45;10.10;;;0.20;99.90;;;;;;5000840;28;20037;-36
2023/03/01 02:47:14;;;;;;;17.15;9.85;;;0.30;99.90;;;;;;5003570;28;20214;-36
2023/03/01 02:49:39;;;;;;;17.45;10.45;;;0.20;99.90;;;;;;5003299;28;20553;-35
2023/03/01 02:52:23;;;;;;;22.23;11.20;;;0.20;99.90;;;;;;5002346;28;20034;-36
2023/03/01 02:55:00;;;;;;;22.42;11.65;;;0.20;99.90;;;;;;5007367;28;20037;-36
2023/03/01 02:57:28;;;;;;;21.55;12.13;;;0.20;99.90;;;;;;5002967;28;20114;-36
2023/03/01 02:59:56;;;;;;;21.33;11.40;;;0.20;99.90;;;;;;5005198;28;20546;-35
2023/03/01 03:02:37;;;;;;;22.73;11.90;;;0.20;99.90;;;;;;4999612;28;20385;-36
2023/03/01 03:05:15;;;;;;;24.30;12.07;;;0.20;99.90;;;;;;5002712;28;20272;-35
2023/03/01 03:07:43;;;;;;;22.15;12.35;;;0.20;99.90;;;;;;5002352;28;20034;-36
2023/03/01 03:10:13;;;;;;;22.75;10.20;;;0.20;99.90;;;;;;5001508;28;20042;-36
2023/03/01 03:12:39;;;;;;;19.42;10.88;;;0.20;99.90;;;;;;5002782;28;20103;-36
2023/03/01 03:15:08;;;;;;;23.67;12.93;;;0.20;99.90;;;;;;4999089;28;20391;-35
2023/03/01 03:17:38;;;;;;;20.38;10.80;;;0.20;99.90;;;;;;5004718;28;20057;-36
2023/03/01 03:20:05;;;;;;;20.33;11.38;;;0.20;99.90;;;;;;4999659;28;20121;-36
2023/03/01 03:22:33;;;;;;;23.58;12.38;;;0.20;99.90;;;;;;5005862;28;20030;-36
2023/03/01 03:24:59;;;;;;;18.63;10.65;;;0.20;99.90;;;;;;5002259;28;20113;-36
2023/03/01 03:27:25;;;;;;;22.42;11.25;;;0.20;99.90;;;;;;4999792;28;20457;-36
2023/03/01 03:29:50;;;;;;;21.88;11.27;;;0.20;99.90;;;;;;5004446;28;20431;-36
2023/03/01 03:32:16;;;;;;;22.25;12.20;;;0.20;99.90;;;;;;5005868;28;20550;-36
2023/03/01 03:34:42;;;;;;;20.60;11.50;;;0.20;99.90;;;;;;4995874;28;20056;-36
2023/03/01 03:38:01;;;;;;;20.73;12.77;;;0.20;99.90;;;;;;5002275;28;20026;-36
2023/03/01 03:39:54;;;;;;;19.70;11.07;;;0.20;99.90;;;;;;5005259;28;20053;-36
2023/03/01 03:42:21;;;;;;;23.35;11.98;;;0.20;99.90;;;;;;5003833;28;20099;-36
2023/03/01 03:44:47;;;;;;;24.10;12.25;;;0.20;99.90;;;;;;4999025;28;20065;-36
2023/03/01 03:47:13;;;;;;;18.98;11.48;;;0.20;99.90;;;;;;4982700;28;20185;-36
2023/03/01 03:49:38;;;;;;;20.33;11.88;;;0.20;99.90;;;;;;4979507;28;20204;-36
2023/03/01 03:52:04;;;;;;;24.08;12.60;;;0.20;99.90;;;;;;4984937;28;20625;-36
2023/03/01 03:54:29;;;;;;;23.33;11.05;;;0.20;99.90;;;;;;4986346;28;20042;-36
2023/03/01 03:56:55;;;;;;;23.77;12.10;;;0.20;99.90;;;;;;4986922;28;20038;-37
2023/03/01 03:59:21;;;;;;;19.13;10.45;;;0.20;99.90;;;;;;4983578;28;20452;-35
2023/03/01 04:01:46;;;;;;;25.30;13.80;;;0.20;99.90;;;;;;4993510;28;20053;-36
2023/03/01 04:04:13;;;;;;;18.30;10.55;;;0.20;99.90;;;;;;5001393;28;20066;-35
2023/03/01 04:06:38;;;;;;;21.15;11.73;;;0.20;99.90;;;;;;5003099;28;20044;-36
2023/03/01 04:09:04;;;;;;;19.25;10.98;;;0.20;99.90;;;;;;5004501;28;20456;-36
2023/03/01 04:11:30;;;;;;;20.27;11.32;;;0.20;99.90;;;;;;4997162;28;20431;-36
2023/03/01 04:13:58;;;;;;;21.38;12.00;;;0.20;99.90;;;;;;5003293;28;20026;-36
2023/03/01 04:16:24;;;;;;;20.17;10.95;;;0.20;99.90;;;;;;4998426;28;20030;-36
2023/03/01 04:18:50;;;;;;;31.67;12.18;;;0.20;99.90;;;;;;4997413;28;20484;-36
2023/03/01 04:21:16;;;;;;;21.20;10.85;;;0.20;99.90;;;;;;5000385;28;20026;-36
2023/03/01 04:23:41;;;;;;;20.40;11.43;;;0.20;99.90;;;;;;5005282;28;20117;-36
2023/03/01 04:26:08;;;;;;;20.08;10.98;;;0.20;99.90;;;;;;4998755;28;20026;-36
2023/03/01 04:28:37;;;;;;;21.55;11.88;;;0.20;99.90;;;;;;5002231;28;20034;-36
2023/03/01 04:31:12;;;;;;;21.88;12.57;;;0.20;99.90;;;;;;4998636;28;20035;-36
2023/03/01 04:33:48;;;;;;;19.50;11.15;;;0.20;99.90;;;;;;5000872;28;20091;-36
2023/03/01 04:36:17;;;;;;;19.00;11.27;;;0.20;99.90;;;;;;5001036;28;20121;-36
2023/03/01 04:38:47;;;;;;;20.98;9.68;;;0.20;99.90;;;;;;5001819;28;20031;-36
2023/03/01 04:41:14;;;;;;;18.45;10.48;;;0.10;99.90;;;;;;4997090;28;20076;-36
2023/03/01 04:43:39;;;;;;;18.40;9.98;;;0.10;99.90;;;;;;4998650;28;20097;-36
2023/03/01 04:46:09;;;;;;;21.92;11.35;;;0.10;99.90;;;;;;5001368;28;20050;-36
2023/03/01 04:48:36;;;;;;;28.20;10.98;;;0.10;99.90;;;;;;5002505;28;20050;-36
2023/03/01 04:51:02;;;;;;;18.30;10.10;;;0.10;99.90;;;;;;4996873;28;20084;-36
2023/03/01 04:53:28;;;;;;;20.52;10.77;;;0.00;99.90;;;;;;5008576;28;20030;-36
2023/03/01 04:55:56;;;;;;;21.13;11.32;;;0.00;99.90;;;;;;5000699;28;20034;-36
2023/03/01 04:58:23;;;;;;;;;;;0.00;99.90;;;;;;5000621;28;20019;-36
2023/03/01 05:00:49;;;;;;;17.60;9.48;;;0.00;99.90;;;;;;5000281;28;19975;-36
2023/03/01 05:03:17;;;;;;;20.27;10.63;;;0.00;99.90;;;;;;5005021;28;20030;-36
2023/03/01 05:05:45;;;;;;;20.92;11.70;;;-0.10;99.90;;;;;;5002124;28;20046;-36
2023/03/01 05:08:17;;;;;;;17.27;9.27;;;-0.10;99.90;;;;;;5001912;28;20488;-36
2023/03/01 05:10:48;;;;;;;20.10;10.32;;;-0.20;99.90;;;;;;4999504;28;20030;-36
2023/03/01 05:13:20;;;;;;;15.13;9.15;;;-0.30;99.90;;;;;;4998953;28;20105;-36
2023/03/01 05:15:48;;;;;;;18.85;10.13;;;-0.30;99.90;;;;;;4996509;28;20072;-35
2023/03/01 05:18:14;;;;;;;21.45;11.10;;;-0.40;99.90;;;;;;5004043;28;20100;-36
2023/03/01 05:20:40;;;;;;;19.13;12.73;;;-0.50;99.90;;;;;;5001991;28;20087;-36
2023/03/01 05:23:05;;;;;;;16.60;9.57;;;-0.60;99.90;;;;;;5005931;28;20069;-36
2023/03/01 05:25:33;;;;;;;21.70;10.70;;;-0.70;99.90;;;;;;5001570;28;20034;-36
2023/03/01 05:28:04;;;;;;;20.80;10.77;;;-0.70;99.90;;;;;;5002337;28;20039;-36
2023/03/01 05:30:32;;;;;;;17.90;10.10;;;-0.80;99.90;;;;;;4996197;28;20427;-34
2023/03/01 05:32:58;;;;;;;22.67;11.52;;;-0.80;99.90;;;;;;4995558;28;20031;-36
2023/03/01 05:35:24;;;;;;;25.17;11.38;;;-0.90;99.90;;;;;;4999530;28;20038;-36
2023/03/01 05:37:50;;;;;;;18.65;9.80;;;-0.90;99.90;;;;;;5003051;28;20376;-36
2023/03/01 05:40:21;;;;;;;20.27;10.95;;;-1.00;99.90;;;;;;5001068;28;20037;-36
2023/03/01 05:42:49;;;;;;;21.88;12.57;;;-1.10;99.90;;;;;;4999991;28;20133;-36
2023/03/01 05:45:16;;;;;;;20.52;11.02;;;-1.20;99.90;;;;;;4999510;28;20334;-37
2023/03/01 05:47:44;;;;;;;21.33;12.02;;;-1.20;99.90;;;;;;4997104;28;20037;-36
2023/03/01 05:50:18;;;;;;;23.65;13.55;;;-1.30;99.90;;;;;;5002106;28;20042;-36
2023/03/01 05:52:45;;;;;;;17.63;9.25;;;-1.30;99.90;;;;;;5002384;28;20038;-36
2023/03/01 05:55:11;;;;;;;23.23;11.32;;;-1.30;99.90;;;;;;5006894;28;20019;-36
2023/03/01 05:57:36;;;;;;;22.17;12.13;;;-1.40;99.90;;;;;;4997183;28;20056;-36
2023/03/01 06:00:03;;;;;;;21.70;11.70;;;-1.50;99.90;;;;;;5004374;28;20065;-36
2023/03/01 06:02:29;;;;;;;20.13;11.15;;;-1.40;99.90;;;;;;4996013;28;20053;-36
2023/03/01 06:04:55;;;;;;;22.05;10.05;;;-1.40;99.90;;;;;;5003318;28;20093;-36
2023/03/01 06:07:21;;;;;;;24.55;13.35;;;-1.40;99.90;;;;;;4994664;28;20056;-36
2023/03/01 06:09:46;;;;;;;26.08;11.63;;;-1.50;99.90;;;;;;4997627;28;20113;-36
2023/03/01 06:12:12;;;;;;;23.15;11.52;;;-1.50;99.90;;;;;;4998349;28;20061;-36
2023/03/01 06:14:37;;;;;;;24.30;11.95;;;-1.50;99.90;;;;;;4996924;28;20613;-36
2023/03/01 06:17:03;;;;;;;22.48;12.07;;;-1.50;99.90;;;;;;4999934;28;20026;-36
2023/03/01 06:19:29;;;;;;;19.42;9.52;;;-1.50;99.90;;;;;;5001895;28;20022;-36
2023/03/01 06:21:55;;;;;;;20.83;12.45;;;-1.50;99.90;;;;;;4995220;28;20030;-36
2023/03/01 06:24:20;;;;;;;24.58;12.27;;;-1.50;99.90;;;;;;4996846;28;20040;-36
2023/03/01 06:26:46;;;;;;;24.52;13.43;;;-1.50;99.90;;;;;;4993992;28;20027;-36
2023/03/01 06:29:11;;;;;;;24.83;12.77;;;-1.50;99.90;;;;;;4998157;28;20038;-36
2023/03/01 06:31:37;;;;;;;27.83;12.80;;;-1.50;99.90;;;;;;5001251;28;20035;-40
2023/03/01 06:34:03;;;;;;;23.27;12.60;;;-1.50;99.90;;;;;;4993142;28;20134;-37
2023/03/01 06:36:28;;;;;;;24.85;12.60;;;-1.50;99.90;;;;;;5003083;28;20732;-36
2023/03/01 06:38:54;;;;;;;24.00;13.38;;;-1.50;99.90;;;;;;4994631;28;20042;-35
2023/03/01 06:41:20;;;;;;;25.58;12.48;;;-1.50;99.90;;;;;;4997063;28;20080;-35
2023/03/01 06:43:45;;;;;;;22.27;11.82;;;-1.40;99.90;;;;;;4994837;28;20046;-35
2023/03/01 06:46:11;;;;;;;21.55;12.55;;;-1.30;99.90;;;;;;4999952;28;20056;-35
2023/03/01 06:48:36;;;;;;;25.08;12.38;;;-1.30;99.90;;;;;;4996721;28;20021;-35
2023/03/01 06:51:02;;;;;;;28.00;14.00;;;-1.30;99.90;;;;;;5005536;28;20121;-35
2023/03/01 06:53:29;;;;;;;20.52;11.23;;;-1.20;99.90;;;;;;5001798;28;20034;-36
2023/03/01 06:55:55;;;;;;;24.08;13.60;;;-1.20;99.90;;;;;;5007022;28;20056;-36
2023/03/01 06:58:21;;;;;;;23.95;10.45;;;-1.20;99.90;;;;;;5001342;28;20125;-35
2023/03/01 07:00:47;;;;;;;23.92;11.75;;;-1.10;99.90;;;;;;5008517;28;20112;-35
2023/03/01 07:03:12;;;;;;;30.02;14.15;;;-1.10;99.90;;;;;;5002078;28;20537;-34
2023/03/01 07:05:38;;;;;;;28.08;14.27;;;-1.10;99.90;;;;;;5004222;28;20408;-34
2023/03/01 07:08:04;;;;;;;19.75;9.70;;;-1.00;99.90;;;;;;5004200;28;20043;-35
2023/03/01 07:10:29;;;;;;;26.42;13.65;;;-1.00;99.90;;;;;;5005397;28;20061;-36
2023/03/01 07:12:59;;;;;;;23.38;12.30;;;-0.90;99.90;;;;;;4998471;28;20038;-37
2023/03/01 07:15:26;;;;;;;25.67;13.23;;;-0.90;99.90;;;;;;5003291;28;20029;-36
2023/03/01 07:17:51;;;;;;;24.50;12.95;;;-0.90;99.90;;;;;;5000658;28;20395;-36
2023/03/01 07:20:18;;;;;;;26.80;14.32;;;-0.90;99.90;;;;;;5002685;28;20030;-37
2023/03/01 07:22:44;;;;;;;22.80;13.20;;;-0.90;99.90;;;;;;4995524;28;20093;-37
2023/03/01 07:25:10;;;;;;;26.17;13.35;;;-0.80;99.90;;;;;;5003591;28;20029;-37
2023/03/01 07:27:36;;;;;;;34.22;16.42;;;-0.70;99.90;;;;;;4997545;28;20542;-36
2023/03/01 07:30:03;;;;;;;30.02;15.20;;;-0.70;99.90;;;;;;5001351;28;20101;-37
2023/03/01 07:32:28;;;;;;;26.40;13.90;;;-0.70;99.90;;;;;;5003395;28;20034;-36
2023/03/01 07:34:54;;;;;;;27.60;14.77;;;-0.60;99.90;;;;;;5007151;28;20041;-36
2023/03/01 07:37:20;;;;;;;25.08;14.18;;;-0.60;99.90;;;;;;4996980;28;20463;-37
2023/03/01 07:39:45;;;;;;;28.45;13.52;;;-0.60;99.90;;;;;;5003119;28;20034;-37
2023/03/01 07:42:11;;;;;;;28.45;15.32;;;-0.60;99.90;;;;;;5007587;28;20054;-36
2023/03/01 07:44:36;;;;;;;28.42;13.55;;;-0.50;99.90;;;;;;4997147;28;20018;-36
2023/03/01 07:47:03;;;;;;;29.98;13.35;;;-0.50;99.90;;;;;;5001483;28;20049;-37
2023/03/01 07:49:29;;;;;;;28.25;14.13;;;-0.40;99.90;;;;;;5001797;28;20042;-37
2023/03/01 07:51:54;;;;;;;30.35;15.20;;;-0.40;99.90;;;;;;5006506;28;20089;-37
2023/03/01 07:54:20;;;;;;;27.02;14.77;;;-0.30;99.90;;;;;;4998375;28;20460;-37
2023/03/01 07:56:46;;;;;;;28.65;13.85;;;-0.30;99.90;;;;;;5002369;28;20097;-36
2023/03/01 07:59:11;;;;;;;30.20;14.10;;;-0.20;99.90;;;;;;5000309;28;20041;-36
2023/03/01 08:01:37;;;;;;;28.17;14.70;;;-0.20;99.90;;;;;;5002594;28;20105;-36
2023/03/01 08:04:04;;;;;;;25.90;13.82;;;0.00;99.90;;;;;;5003702;28;20033;-36
2023/03/01 08:06:30;;;;;;;27.35;14.02;;;0.00;99.90;;;;;;5001214;28;20487;-36
2023/03/01 08:08:56;;;;;;;24.98;12.68;;;0.00;99.90;;;;;;4999723;28;20033;-37
2023/03/01 08:11:22;;;;;;;27.52;15.77;;;0.10;99.90;;;;;;5000990;28;20049;-37
2023/03/01 08:13:48;;;;;;;29.48;14.85;;;0.10;99.90;;;;;;4997679;28;20036;-36
2023/03/01 08:16:15;;;;;;;31.58;15.95;;;0.20;99.90;;;;;;4994491;28;20442;-36
2023/03/01 08:18:42;;;;;;;27.00;14.23;;;0.20;99.90;;;;;;4998755;28;20030;-36
2023/03/01 08:21:10;;;;;;;29.05;14.68;;;0.20;99.90;;;;;;5007034;28;20022;-36
2023/03/01 08:23:36;;;;;;;23.58;12.23;;;0.20;99.90;;;;;;4999099;28;20685;-37
2023/03/01 08:26:07;;;;;;;26.23;13.38;;;0.20;99.90;;;;;;5004710;28;20057;-36
2023/03/01 08:28:33;;;;;;;20.80;11.93;;;0.20;99.90;;;;;;5005594;28;20034;-36
2023/03/01 08:30:59;;;;;;;26.52;14.02;;;0.30;99.90;;;;;;4995611;28;20107;-36
2023/03/01 08:33:24;;;;;;;22.73;12.85;;;0.30;99.90;;;;;;5005221;28;20033;-36
2023/03/01 08:35:50;;;;;;;26.25;13.95;;;0.30;99.90;;;;;;4997398;28;20035;-36
2023/03/01 08:38:16;;;;;;;19.17;10.23;;;0.40;99.90;;;;;;5005599;28;20533;-36
2023/03/01 08:40:41;;;;;;;27.00;14.40;;;0.40;99.90;;;;;;5002620;28;20031;-36
2023/03/01 08:43:07;;;;;;;26.77;14.68;;;0.40;99.90;;;;;;5003614;28;20130;-36
2023/03/01 08:45:32;;;;;;;27.27;12.55;;;0.50;99.90;;;;;;4996950;28;20498;-36
2023/03/01 08:47:58;;;;;;;24.00;12.88;;;0.50;99.90;;;;;;4997311;28;20045;-36
2023/03/01 08:50:24;;;;;;;28.13;14.20;;;0.60;99.90;;;;;;4993225;28;20086;-37
2023/03/01 08:52:50;;;;;;;24.05;12.73;;;0.60;99.90;;;;;;4992119;28;20491;-36
2023/03/01 08:55:18;;;;;;;25.73;13.68;;;0.60;99.90;;;;;;5000138;28;20029;-36
2023/03/01 08:57:44;;;;;;;;;;;0.60;99.90;;;;;;5003218;28;20034;-36
2023/03/01 09:00:14;;;;;;;26.38;12.98;;;0.70;99.90;;;;;;4997875;28;19921;-36
2023/03/01 09:02:40;;;;;;;24.73;13.75;;;0.70;99.90;;;;;;4999580;28;20049;-36
2023/03/01 09:05:06;;;;;;;23.92;12.70;;;0.70;99.90;;;;;;4998429;28;20021;-36
2023/03/01 09:07:31;;;;;;;21.38;12.13;;;0.80;99.90;;;;;;4999477;28;20026;-36
2023/03/01 09:09:57;;;;;;;20.35;11.98;;;0.90;99.90;;;;;;4995631;28;20111;-36
2023/03/01 09:12:24;;;;;;;30.17;14.10;;;0.90;99.90;;;;;;5004508;28;20022;-36
2023/03/01 09:14:50;;;;;;;25.45;15.25;;;1.00;99.90;;;;;;4999119;28;20117;-36
2023/03/01 09:17:15;;;;;;;20.20;12.35;;;1.00;99.90;;;;;;4994856;28;20112;-36
2023/03/01 09:19:41;;;;;;;22.35;11.18;;;1.00;99.90;;;;;;4999927;28;20034;-36
2023/03/01 09:22:07;;;;;;;21.20;11.68;;;1.00;99.90;;;;;;5000846;28;20034;-36
2023/03/01 09:24:32;;;;;;;25.60;14.70;;;1.10;99.90;;;;;;4997802;28;20476;-36
2023/03/01 09:26:58;;;;;;;26.02;12.90;;;1.20;99.90;;;;;;5003257;28;20407;-36
2023/03/01 09:29:24;;;;;;;24.80;13.57;;;1.20;99.90;;;;;;4997038;28;20030;-36
2023/03/01 09:31:49;;;;;;;21.80;11.48;;;1.20;99.90;;;;;;4998811;28;20184;-36
2023/03/01 09:34:19;;;;;;;25.70;12.38;;;1.20;99.90;;;;;;4996565;28;20083;-36
2023/03/01 09:36:45;;;;;;;22.60;12.40;;;1.30;99.90;;;;;;5005800;28;20072;-36
2023/03/01 09:39:11;;;;;;;19.95;10.63;;;1.20;99.90;;;;;;4996630;28;20051;-36
2023/03/01 09:41:49;;;;;;;22.55;12.23;;;1.20;99.90;;;;;;4999244;28;20105;-36
2023/03/01 09:44:31;;;;;;;21.92;11.65;;;1.20;99.90;;;;;;4999908;28;20049;-36
2023/03/01 09:46:57;;;;;;;19.02;9.63;;;1.20;99.90;;;;;;5001182;28;20070;-36
2023/03/01 09:49:34;;;;;;;19.45;11.35;;;1.20;99.90;;;;;;5002060;28;20033;-36
2023/03/01 09:52:21;;;;;;;23.40;11.13;;;1.20;99.90;;;;;;4998372;28;20034;-36
2023/03/01 09:54:49;;;;;;;17.83;10.32;;;1.30;99.90;;;;;;4996618;28;20092;-36
2023/03/01 09:57:32;;;;;;;21.85;10.90;;;1.30;99.90;;;;;;5001689;28;20030;-36
2023/03/01 10:00:06;;;;;;;24.15;12.98;;;1.30;99.90;;;;;;4994429;28;20117;-36
2023/03/01 10:03:13;;;;;;;23.23;12.25;;;1.40;99.90;;;;;;4998816;28;20026;-36
2023/03/01 10:05:47;;;;;;;21.30;10.85;;;1.70;99.90;;;;;;5000122;28;20408;-36
2023/03/01 10:08:41;;;;;;;19.60;11.90;;;1.90;99.90;;;;;;4997365;28;20092;-36
2023/03/01 10:11:19;;;;;;;19.55;11.30;;;2.00;99.90;;;;;;5000234;28;20034;-36
2023/03/01 10:14:06;;;;;;;22.02;11.05;;;1.90;99.90;;;;;;4999912;28;20048;-36
2023/03/01 10:16:47;;;;;;;22.13;12.93;;;2.00;99.90;;;;;;4996884;28;20053;-36
2023/03/01 10:19:22;;;;;;;19.98;11.32;;;2.00;99.90;;;;;;4995558;28;20035;-35
2023/03/01 10:21:50;;;;;;;22.33;11.80;;;2.10;99.90;;;;;;4997827;28;20038;-35
2023/03/01 10:24:20;;;;;;;24.35;12.70;;;2.30;99.90;;;;;;5001634;28;20022;-35
2023/03/01 10:26:56;;;;;;;21.58;10.68;;;2.30;99.90;;;;;;5000041;28;20057;-35
2023/03/01 10:29:39;;;;;;;24.73;14.82;;;2.40;99.90;;;;;;5006233;28;20062;-34
2023/03/01 10:32:08;;;;;;;26.00;15.02;;;2.50;99.90;;;;;;4999434;28;20050;-35
2023/03/01 10:34:35;;;;;;;;;;;2.50;99.90;;;;;;5004460;28;20026;-35
2023/03/01 10:37:20;;;;;;;25.17;13.23;;;2.50;99.90;;;;;;5003328;28;20568;-37
2023/03/01 10:39:55;;;;;;;24.58;13.70;;;2.80;99.90;;;;;;5004643;28;20387;-36
2023/03/01 10:42:37;;;;;;;27.13;15.00;;;2.90;99.90;;;;;;5001392;28;20037;-34
2023/03/01 10:45:37;;;;;;;24.52;13.32;;;2.90;99.90;;;;;;5004197;28;20383;-36
2023/03/01 10:48:16;;;;;;;23.88;12.95;;;3.00;99.90;;;;;;4993361;28;20031;-36
2023/03/01 10:50:49;;;;;;;20.60;11.40;;;3.10;99.90;;;;;;5008385;28;20499;-36
2023/03/01 10:53:28;;;;;;;24.90;15.65;;;3.20;99.90;;;;;;4998909;28;20038;-36
2023/03/01 10:56:04;;;;;;;27.75;15.18;;;3.10;99.90;;;;;;5003966;28;20040;-36
2023/03/01 10:58:30;;;;;;;28.40;14.48;;;3.00;99.90;;;;;;4995821;28;20018;-36
2023/03/01 11:01:05;;;;;;;24.40;14.07;;;3.00;99.90;;;;;;5008300;28;20377;-36
2023/03/01 11:03:33;;;;;;;24.50;12.63;;;3.20;99.90;;;;;;5005654;28;20030;-36
2023/03/01 11:06:04;;;;;;;30.15;15.70;;;3.30;99.90;;;;;;5001701;28;20577;-36
2023/03/01 11:08:47;;;;;;;23.70;13.75;;;3.50;99.90;;;;;;5001402;28;20026;-36
2023/03/01 11:11:22;;;;;;;26.83;14.77;;;3.50;99.90;;;;;;5001630;28;20038;-36
2023/03/01 11:13:55;;;;;;;29.55;16.10;;;3.50;99.90;;;;;;5000006;28;20022;-36
2023/03/01 11:16:29;;;;;;;30.85;14.75;;;3.70;99.90;;;;;;5001337;28;20026;-36
2023/03/01 11:19:21;;;;;;;22.85;12.40;;;3.50;99.90;;;;;;5003573;28;20045;-36
2023/03/01 11:22:11;;;;;;;22.10;11.30;;;3.80;99.90;;;;;;5003138;28;20036;-37
2023/03/01 11:24:53;;;;;;;23.20;11.23;;;3.90;99.90;;;;;;4999150;28;20510;-36
2023/03/01 11:27:33;;;;;;;23.08;13.40;;;3.90;99.90;;;;;;5001529;28;20499;-35
2023/03/01 11:30:04;;;;;;;24.88;13.52;;;3.70;99.90;;;;;;5004428;28;20411;-36
2023/03/01 11:32:45;;;;;;;22.83;13.13;;;3.90;99.90;;;;;;4998735;28;20038;-36
2023/03/01 11:35:20;;;;;;;20.52;11.30;;;3.90;99.90;;;;;;5005484;28;20049;-36
2023/03/01 11:38:02;;;;;;;24.08;12.95;;;4.00;99.90;;;;;;4997547;28;20649;-36
2023/03/01 11:40:31;;;;;;;22.55;13.05;;;4.10;99.90;;;;;;5007586;28;20084;-36
2023/03/01 11:43:09;;;;;;;28.27;16.23;;;4.00;99.90;;;;;;5001588;28;20038;-36
2023/03/01 11:45:47;;;;;;;25.27;15.97;;;4.10;99.90;;;;;;4999161;28;20521;-36
2023/03/01 11:48:12;;;;;;;23.15;12.30;;;3.90;99.90;;;;;;4997954;28;20076;-36
2023/03/01 11:50:46;;;;;;;21.73;12.43;;;4.00;99.90;;;;;;5009424;28;20029;-36
2023/03/01 11:53:20;;;;;;;26.05;13.95;;;4.10;99.90;;;;;;4999186;28;20044;-36
2023/03/01 11:56:08;;;;;;;25.50;14.48;;;4.10;99.90;;;;;;5007991;28;20503;-37
2023/03/01 11:58:37;;;;;;;25.23;15.15;;;4.10;99.90;;;;;;5005183;28;20022;-36
2023/03/01 12:01:08;;;;;;;;;;;4.10;99.90;;;;;;4997287;28;20031;-36
2023/03/01 12:03:43;;;;;;;19.38;11.00;;;4.20;99.90;;;;;;4998966;28;19917;-36
2023/03/01 12:06:32;;;;;;;17.05;10.55;;;4.60;99.90;;;;;;5003449;28;20037;-36
2023/03/01 12:09:03;;;;;;;18.77;11.20;;;4.60;99.20;;;;;;4999454;28;20133;-36
2023/03/01 12:11:39;;;;;;;18.13;12.43;;;4.50;98.50;;;;;;5000463;28;20022;-36
2023/03/01 12:14:10;;;;;;;16.80;9.13;;;4.50;99.90;;;;;;5003972;28;20522;-36
2023/03/01 12:17:06;;;;;;;18.40;10.82;;;4.50;99.20;;;;;;4997450;28;20029;-36
2023/03/01 12:19:50;;;;;;;19.45;11.48;;;4.50;97.70;;;;;;4997753;28;20060;-34
2023/03/01 12:22:20;;;;;;;21.23;11.50;;;4.50;99.50;;;;;;4995532;28;20030;-36
2023/03/01 12:25:16;;;;;;;22.70;13.30;;;4.60;99.90;;;;;;4999491;28;20030;-35
2023/03/01 12:27:50;;;;;;;21.98;11.15;;;4.70;99.30;;;;;;4998401;28;20376;-35
2023/03/01 12:30:24;;;;;;;21.08;11.77;;;4.60;97.40;;;;;;5000887;28;20038;-36
2023/03/01 12:33:07;;;;;;;23.30;11.75;;;4.80;99.90;;;;;;4999060;28;20053;-36
2023/03/01 12:36:11;;;;;;;21.42;10.93;;;4.70;98.30;;;;;;4998039;28;20082;-36
2023/03/01 12:38:50;;;;;;;21.33;12.07;;;4.70;99.70;;;;;;5000013;28;20410;-36
2023/03/01 12:41:31;;;;;;;21.60;12.00;;;4.80;99.90;;;;;;4998533;28;20026;-36
2023/03/01 12:44:12;;;;;;;19.98;10.90;;;4.90;98.30;;;;;;4996293;28;20085;-35
2023/03/01 12:46:46;;;;;;;21.20;12.57;;;4.90;99.90;;;;;;5006811;28;20037;-36
2023/03/01 12:49:19;;;;;;;23.45;12.00;;;5.20;99.90;;;;;;5000943;28;20033;-36
2023/03/01 12:52:19;;;;;;;23.00;12.18;;;5.30;98.80;;;;;;5000629;28;20042;-36